Time;durP1;ratioP1;P1;durP2;ratioP2;P2;SDS_P1;SDS_P2;PMS_P1;PMS_P2;Temp;Humidity;BMP_temperature;BMP_pressure;BME280_temperature;BME280_humidity;BME280_pressure;Samples;Min_cycle;Max_cycle;Signal;HPM_P1;HPM_P2
2022/11/07 00:01:51;;;;;;;9.97;8.60;;;8.60;99.90;;;;;;5049954;28;20716;-48
2022/11/07 00:04:21;;;;;;;11.03;7.63;;;8.60;99.90;;;;;;5042584;28;20771;-48
2022/11/07 00:06:48;;;;;;;8.97;6.20;;;8.60;99.90;;;;;;5036825;28;20671;-48
2022/11/07 00:09:17;;;;;;;8.23;7.33;;;8.60;99.90;;;;;;5052524;28;20665;-48
2022/11/07 00:11:44;;;;;;;8.40;7.70;;;8.50;99.90;;;;;;5046250;28;20273;-48
2022/11/07 00:14:12;;;;;;;11.17;8.63;;;8.50;99.90;;;;;;5052963;28;20223;-48
2022/11/07 00:16:41;;;;;;;14.60;8.10;;;8.50;99.90;;;;;;5046240;28;20199;-49
2022/11/07 00:19:08;;;;;;;8.80;7.90;;;8.50;99.90;;;;;;5054856;28;20203;-48
2022/11/07 00:21:37;;;;;;;10.73;8.07;;;8.40;99.90;;;;;;5053971;28;20221;-48
2022/11/07 00:24:04;;;;;;;10.03;8.03;;;8.50;99.90;;;;;;5046367;28;20225;-48
2022/11/07 00:26:31;;;;;;;11.07;8.03;;;8.50;99.90;;;;;;5044971;28;20200;-48
2022/11/07 00:28:59;;;;;;;9.90;7.53;;;8.40;99.90;;;;;;5041470;28;20196;-48
2022/11/07 00:31:26;;;;;;;9.23;8.13;;;8.40;99.90;;;;;;5043927;28;20778;-49
2022/11/07 00:33:54;;;;;;;13.40;10.20;;;8.40;99.90;;;;;;5045665;28;20734;-48
2022/11/07 00:36:23;;;;;;;10.40;8.00;;;8.30;99.90;;;;;;5054278;28;20261;-49
2022/11/07 00:38:51;;;;;;;8.40;7.60;;;8.30;99.90;;;;;;5051210;28;20732;-48
2022/11/07 00:41:18;;;;;;;10.47;8.67;;;8.30;99.90;;;;;;5046699;28;20197;-49
2022/11/07 00:43:45;;;;;;;9.57;7.87;;;8.20;99.90;;;;;;5043108;28;20220;-49
2022/11/07 00:46:14;;;;;;;10.67;9.07;;;8.30;99.90;;;;;;5054358;28;20204;-49
2022/11/07 00:48:42;;;;;;;13.47;8.70;;;8.30;99.90;;;;;;5054295;28;20207;-48
2022/11/07 00:51:12;;;;;;;10.10;8.20;;;8.30;99.90;;;;;;5053410;28;20581;-48
2022/11/07 00:53:39;;;;;;;10.87;9.17;;;8.30;99.90;;;;;;5051856;28;20273;-49
2022/11/07 00:56:08;;;;;;;12.57;8.73;;;8.30;99.90;;;;;;5046325;28;20272;-50
2022/11/07 00:58:36;;;;;;;10.13;8.60;;;8.30;99.90;;;;;;5053799;28;20751;-49
2022/11/07 01:01:08;;;;;;;8.27;7.47;;;8.30;99.90;;;;;;5053230;28;20208;-48
2022/11/07 01:06:21;;;;;;;8.93;7.67;;;8.20;99.90;;;;;;5046878;28;20628;-49
2022/11/07 01:08:48;;;;;;;8.87;6.77;;;8.20;99.90;;;;;;5043444;28;20200;-47
2022/11/07 01:11:15;;;;;;;8.20;7.37;;;8.20;99.90;;;;;;5052943;28;20237;-50
2022/11/07 01:13:42;;;;;;;11.90;7.47;;;8.20;99.90;;;;;;5045040;28;20215;-48
2022/11/07 01:16:10;;;;;;;10.63;7.93;;;8.20;99.90;;;;;;5053508;28;20271;-49
2022/11/07 01:18:37;;;;;;;8.53;7.67;;;8.20;99.90;;;;;;5053437;28;20208;-48
2022/11/07 01:21:05;;;;;;;8.43;7.27;;;8.20;99.90;;;;;;5047660;28;20247;-48
2022/11/07 01:23:34;;;;;;;8.80;7.90;;;8.20;99.90;;;;;;5041037;28;20242;-49
2022/11/07 01:26:05;;;;;;;12.13;8.67;;;8.20;99.90;;;;;;5053934;28;20203;-49
2022/11/07 01:28:32;;;;;;;16.00;11.60;;;8.10;99.90;;;;;;5053101;28;20291;-48
2022/11/07 01:31:02;;;;;;;9.50;8.43;;;8.10;99.90;;;;;;5053482;28;20600;-48
2022/11/07 01:33:29;;;;;;;8.90;7.37;;;8.00;99.90;;;;;;5051799;28;20223;-49
2022/11/07 01:36:00;;;;;;;9.20;7.10;;;8.00;99.90;;;;;;5053269;28;20928;-48
2022/11/07 01:38:27;;;;;;;9.37;8.37;;;7.90;99.90;;;;;;5053443;28;20661;-48
2022/11/07 01:43:46;;;;;;;6.63;5.97;;;7.80;99.90;;;;;;5053006;28;20230;-49
2022/11/07 01:46:13;;;;;;;11.60;7.47;;;7.70;99.90;;;;;;5052759;28;20204;-48
2022/11/07 01:48:42;;;;;;;10.53;7.60;;;7.70;99.90;;;;;;5051732;28;20203;-48
2022/11/07 01:51:10;;;;;;;9.80;7.83;;;7.70;99.90;;;;;;5046151;28;20263;-48
2022/11/07 01:53:38;;;;;;;9.40;6.50;;;7.70;99.90;;;;;;5053161;28;20235;-49
2022/11/07 01:56:13;;;;;;;8.37;6.77;;;7.60;99.90;;;;;;5053285;28;20265;-49
2022/11/07 01:58:41;;;;;;;6.97;6.17;;;7.60;99.90;;;;;;5051743;28;20199;-49
2022/11/07 02:01:08;;;;;;;8.43;6.93;;;7.50;99.90;;;;;;5040569;28;20231;-49
2022/11/07 02:03:35;;;;;;;7.47;6.77;;;7.50;99.90;;;;;;5040790;28;20783;-48
2022/11/07 02:06:05;;;;;;;7.63;6.70;;;7.50;99.90;;;;;;5033174;28;20208;-48
2022/11/07 02:08:34;;;;;;;8.37;6.90;;;7.50;99.90;;;;;;5033022;28;20255;-50
2022/11/07 02:11:02;;;;;;;7.33;6.47;;;7.40;99.90;;;;;;5037009;28;20222;-49
2022/11/07 02:13:31;;;;;;;7.27;6.40;;;7.50;99.90;;;;;;5040796;28;20218;-48
2022/11/07 02:16:01;;;;;;;7.07;6.10;;;7.50;99.90;;;;;;5046662;28;20253;-48
2022/11/07 02:18:29;;;;;;;7.67;6.17;;;7.50;99.90;;;;;;5044295;28;20204;-48
2022/11/07 02:21:00;;;;;;;7.47;6.77;;;7.50;99.90;;;;;;5049420;28;20204;-48
2022/11/07 02:23:35;;;;;;;7.10;6.17;;;7.50;99.90;;;;;;5047024;28;20227;-48
2022/11/07 02:26:03;;;;;;;7.73;6.10;;;7.60;99.90;;;;;;5044738;28;20606;-48
2022/11/07 02:28:32;;;;;;;10.23;6.67;;;7.70;99.90;;;;;;5051776;28;20201;-48
2022/11/07 02:30:59;;;;;;;7.93;5.87;;;7.70;99.90;;;;;;5040707;28;20699;-49
2022/11/07 02:33:26;;;;;;;5.90;4.97;;;7.60;99.90;;;;;;5039581;28;20778;-48
2022/11/07 02:35:53;;;;;;;5.60;5.13;;;7.60;99.90;;;;;;5051223;28;20624;-49
2022/11/07 02:38:23;;;;;;;6.80;6.17;;;7.50;99.90;;;;;;5045113;28;20204;-48
2022/11/07 02:40:53;;;;;;;7.23;6.17;;;7.40;99.90;;;;;;5052241;28;20615;-48
2022/11/07 02:43:24;;;;;;;5.70;5.17;;;7.40;99.90;;;;;;5044983;28;20224;-48
2022/11/07 02:45:51;;;;;;;6.90;6.23;;;7.30;99.90;;;;;;5040585;28;20230;-48
2022/11/07 02:48:18;;;;;;;7.43;6.03;;;7.20;99.90;;;;;;5036424;28;20262;-49
2022/11/07 02:50:45;;;;;;;7.87;7.17;;;7.20;99.90;;;;;;5040463;28;20275;-48
2022/11/07 02:53:12;;;;;;;7.30;6.20;;;7.10;99.90;;;;;;5031664;28;20278;-48
2022/11/07 02:55:39;;;;;;;6.90;6.17;;;7.00;99.90;;;;;;5033558;28;20209;-48
2022/11/07 02:58:06;;;;;;;8.27;6.13;;;7.00;99.90;;;;;;5040360;28;20921;-48
2022/11/07 03:00:35;;;;;;;7.40;6.40;;;7.00;99.90;;;;;;5040908;28;20986;-48
2022/11/07 03:03:02;;;;;;;6.10;5.40;;;6.90;99.90;;;;;;5031663;28;20234;-48
2022/11/07 03:05:29;;;;;;;5.60;4.80;;;6.90;99.90;;;;;;5032114;28;20671;-48
2022/11/07 03:07:56;;;;;;;5.87;5.37;;;6.90;99.90;;;;;;5032155;28;20207;-48
2022/11/07 03:10:23;;;;;;;6.47;5.80;;;6.90;99.90;;;;;;5040985;28;20207;-49
2022/11/07 03:12:50;;;;;;;6.33;5.50;;;6.80;99.90;;;;;;5046865;28;20225;-49
2022/11/07 03:15:17;;;;;;;5.43;4.80;;;6.80;99.90;;;;;;5046320;28;20551;-48
2022/11/07 03:17:45;;;;;;;5.33;4.80;;;6.80;99.90;;;;;;5032116;28;20204;-48
2022/11/07 03:20:12;;;;;;;5.40;4.90;;;6.80;99.90;;;;;;5031830;28;20204;-48
2022/11/07 03:22:39;;;;;;;6.33;5.20;;;6.80;99.90;;;;;;5038617;28;20243;-48
2022/11/07 03:25:07;;;;;;;5.33;4.87;;;6.90;99.90;;;;;;5043027;28;20198;-49
2022/11/07 03:27:34;;;;;;;3.43;3.13;;;6.90;99.90;;;;;;5043707;28;20200;-51
2022/11/07 03:30:01;;;;;;;3.57;3.00;;;6.90;99.90;;;;;;5051346;28;20246;-48
2022/11/07 03:32:28;;;;;;;4.53;2.57;;;7.00;99.90;;;;;;5044134;28;20222;-48
2022/11/07 03:34:56;;;;;;;2.43;2.20;;;7.20;99.90;;;;;;5050698;28;20197;-48
2022/11/07 03:37:23;;;;;;;4.20;2.70;;;7.30;99.90;;;;;;5041859;28;20199;-48
2022/11/07 03:39:50;;;;;;;2.67;2.47;;;7.40;99.90;;;;;;5043201;28;20201;-48
2022/11/07 03:42:17;;;;;;;3.07;2.77;;;7.50;99.90;;;;;;5051603;28;20215;-49
2022/11/07 03:44:44;;;;;;;4.10;3.37;;;7.60;99.90;;;;;;5051524;28;20674;-48
2022/11/07 03:47:11;;;;;;;2.13;2.03;;;7.70;99.90;;;;;;5051770;28;20630;-51
2022/11/07 03:49:38;;;;;;;2.53;1.83;;;7.80;99.90;;;;;;5050622;28;20635;-48
2022/11/07 03:52:06;;;;;;;2.77;2.37;;;7.80;99.90;;;;;;5035718;28;20697;-49
2022/11/07 03:54:33;;;;;;;2.20;2.00;;;7.90;99.90;;;;;;5042192;28;20212;-48
2022/11/07 03:57:00;;;;;;;1.83;1.50;;;7.90;99.90;;;;;;5031850;28;20612;-48
2022/11/07 03:59:27;;;;;;;2.23;1.63;;;7.80;99.90;;;;;;5031698;28;20212;-49
2022/11/07 04:01:54;;;;;;;3.10;1.20;;;7.80;99.90;;;;;;5033277;28;20196;-48
2022/11/07 04:04:21;;;;;;;1.93;1.80;;;7.90;99.90;;;;;;5047550;28;20255;-48
2022/11/07 04:06:48;;;;;;;1.80;1.53;;;7.80;99.90;;;;;;5052526;28;20204;-49
2022/11/07 04:09:20;;;;;;;1.50;1.27;;;7.80;99.90;;;;;;5049180;28;20206;-48
2022/11/07 04:17:28;;;;;;;0.87;0.70;;;7.80;99.90;;;;;;4966029;28;20206;-48
2022/11/07 04:19:56;;;;;;;0.60;0.60;;;7.80;99.90;;;;;;5035845;28;20204;-48
2022/11/07 04:22:24;;;;;;;1.83;0.73;;;7.90;99.90;;;;;;5048210;28;20279;-49
2022/11/07 04:24:52;;;;;;;0.47;0.47;;;8.00;99.90;;;;;;5051473;28;20203;-48
2022/11/07 04:30:18;;;;;;;1.60;0.83;;;7.90;99.90;;;;;;5045843;28;20622;-48
2022/11/07 04:32:46;;;;;;;0.93;0.83;;;7.90;99.90;;;;;;5051903;28;20306;-48
2022/11/07 04:35:13;;;;;;;1.20;1.10;;;7.80;99.90;;;;;;5047558;28;20200;-48
2022/11/07 04:37:40;;;;;;;0.97;0.83;;;7.70;99.90;;;;;;5051753;28;20281;-48
2022/11/07 04:40:10;;;;;;;1.10;1.00;;;7.70;99.90;;;;;;5045994;28;20203;-48
2022/11/07 04:42:38;;;;;;;1.23;1.03;;;7.70;99.90;;;;;;5052313;28;20275;-48
2022/11/07 04:45:06;;;;;;;1.17;1.03;;;7.70;99.90;;;;;;5035023;28;20637;-48
2022/11/07 04:47:33;;;;;;;0.70;0.70;;;7.70;99.90;;;;;;5034099;28;20196;-47
2022/11/07 04:50:00;;;;;;;0.93;0.90;;;7.60;99.90;;;;;;5051231;28;20200;-48
2022/11/07 04:52:27;;;;;;;1.40;1.27;;;7.50;99.90;;;;;;5042634;28;20282;-48
2022/11/07 04:54:54;;;;;;;1.30;1.20;;;7.40;99.90;;;;;;5041427;28;20207;-47
2022/11/07 04:57:23;;;;;;;1.60;0.77;;;7.40;99.90;;;;;;5033687;28;20732;-48
2022/11/07 04:59:50;;;;;;;0.90;0.80;;;7.40;99.90;;;;;;5033428;28;20205;-49
2022/11/07 05:02:17;;;;;;;0.97;0.97;;;7.30;99.90;;;;;;5033155;28;20287;-47
2022/11/07 05:04:44;;;;;;;0.77;0.77;;;7.30;99.90;;;;;;5033253;28;20196;-48
2022/11/07 05:07:11;;;;;;;1.50;1.40;;;7.30;99.90;;;;;;5033551;28;20200;-48
2022/11/07 05:09:38;;;;;;;1.27;1.27;;;7.20;99.90;;;;;;5040990;28;20283;-47
2022/11/07 05:12:05;;;;;;;2.43;1.50;;;7.10;99.90;;;;;;5043721;28;20220;-48
2022/11/07 05:14:34;;;;;;;1.77;1.47;;;7.10;99.90;;;;;;5050746;28;20267;-49
2022/11/07 05:17:03;;;;;;;1.87;1.00;;;7.20;99.90;;;;;;5044149;28;20572;-48
2022/11/07 05:19:30;;;;;;;1.00;1.00;;;7.20;99.90;;;;;;5051388;28;20203;-48
2022/11/07 05:24:38;;;;;;;0.87;0.80;;;7.30;99.90;;;;;;5050355;28;20554;-49
2022/11/07 05:27:05;;;;;;;2.27;0.90;;;7.40;99.90;;;;;;5043561;28;20208;-48
2022/11/07 05:29:33;;;;;;;0.90;0.73;;;7.40;99.90;;;;;;5047971;28;20249;-48
2022/11/07 05:32:00;;;;;;;1.70;0.90;;;7.40;99.90;;;;;;5051899;28;20724;-47
2022/11/07 05:34:28;;;;;;;0.60;0.60;;;7.30;99.90;;;;;;5051213;28;20705;-48
2022/11/07 05:36:55;;;;;;;0.97;0.70;;;7.30;99.90;;;;;;5051581;28;20214;-48
2022/11/07 05:39:25;;;;;;;0.50;0.50;;;7.40;99.90;;;;;;5051704;28;20241;-48
2022/11/07 05:41:52;;;;;;;0.60;0.60;;;7.40;99.90;;;;;;5049582;28;20245;-49
2022/11/07 05:44:19;;;;;;;0.73;0.60;;;7.40;99.90;;;;;;5043343;28;20223;-49
2022/11/07 05:46:47;;;;;;;0.73;0.70;;;7.30;99.90;;;;;;5051419;28;20192;-48
2022/11/07 05:49:16;;;;;;;0.70;0.70;;;7.20;99.90;;;;;;5050406;28;20669;-48
2022/11/07 05:51:43;;;;;;;0.70;0.70;;;7.20;99.90;;;;;;5032521;28;20261;-48
2022/11/07 05:54:10;;;;;;;0.40;0.40;;;7.10;99.90;;;;;;5032146;28;20272;-49
2022/11/07 05:56:37;;;;;;;1.50;0.63;;;7.10;99.90;;;;;;5032756;28;20747;-48
2022/11/07 05:59:05;;;;;;;1.33;1.20;;;7.00;99.90;;;;;;5036830;28;20729;-48
2022/11/07 06:01:32;;;;;;;0.80;0.60;;;7.10;99.90;;;;;;5042542;28;20196;-48
2022/11/07 06:04:00;;;;;;;0.93;0.93;;;7.00;99.90;;;;;;5041225;28;20339;-48
2022/11/07 06:06:27;;;;;;;2.13;0.97;;;7.00;99.90;;;;;;5034679;28;20796;-49
2022/11/07 06:08:54;;;;;;;1.03;0.93;;;7.10;99.90;;;;;;5049650;28;20199;-48
2022/11/07 06:11:21;;;;;;;1.07;0.97;;;7.20;99.90;;;;;;5038895;28;20208;-48
2022/11/07 06:13:48;;;;;;;1.67;0.90;;;7.20;99.90;;;;;;5033421;28;20220;-48
2022/11/07 06:16:15;;;;;;;1.10;1.00;;;7.20;99.90;;;;;;5040876;28;20577;-49
2022/11/07 06:18:42;;;;;;;1.07;0.67;;;7.20;99.90;;;;;;5045781;28;20697;-48
2022/11/07 06:21:10;;;;;;;0.50;0.50;;;7.10;99.90;;;;;;5037527;28;20204;-48
2022/11/07 06:23:37;;;;;;;0.83;0.83;;;7.20;99.90;;;;;;5034785;28;20215;-48
2022/11/07 06:26:05;;;;;;;0.60;0.50;;;7.40;99.90;;;;;;5031817;28;20197;-48
2022/11/07 06:28:32;;;;;;;3.73;0.70;;;7.40;99.90;;;;;;5033109;28;20243;-49
2022/11/07 06:31:00;;;;;;;0.50;0.50;;;7.50;99.90;;;;;;5031706;28;20192;-47
2022/11/07 06:33:28;;;;;;;0.57;0.57;;;7.60;99.90;;;;;;5046491;28;20227;-48
2022/11/07 06:35:55;;;;;;;0.40;0.40;;;7.60;99.90;;;;;;5043038;28;20204;-48
2022/11/07 06:38:24;;;;;;;0.80;0.53;;;7.70;99.90;;;;;;5042826;28;20199;-48
2022/11/07 06:40:51;;;;;;;1.70;0.70;;;7.70;99.90;;;;;;5039862;28;20293;-48
2022/11/07 06:43:19;;;;;;;1.07;1.03;;;7.60;99.90;;;;;;5038657;28;20223;-48
2022/11/07 06:45:47;;;;;;;0.60;0.60;;;7.60;99.90;;;;;;5042931;28;20208;-48
2022/11/07 06:48:14;;;;;;;1.30;0.80;;;7.70;99.90;;;;;;5045823;28;20208;-48
2022/11/07 06:50:41;;;;;;;2.13;0.77;;;7.60;99.90;;;;;;5047467;28;20202;-48
2022/11/07 06:53:10;;;;;;;1.00;0.90;;;7.60;99.90;;;;;;5038599;28;20231;-49
2022/11/07 06:55:39;;;;;;;1.70;1.00;;;7.60;99.90;;;;;;5041781;28;20325;-49
2022/11/07 06:58:07;;;;;;;0.60;0.60;;;7.60;99.90;;;;;;5039491;28;20203;-49
2022/11/07 07:00:35;;;;;;;0.70;0.70;;;7.60;99.90;;;;;;5043155;28;20278;-48
2022/11/07 07:03:03;;;;;;;1.90;0.80;;;7.70;99.90;;;;;;5044030;28;20287;-47
2022/11/07 07:05:31;;;;;;;0.60;0.60;;;7.70;99.90;;;;;;5039172;28;20687;-49
2022/11/07 07:07:58;;;;;;;2.00;1.13;;;7.70;99.90;;;;;;5037840;28;20202;-48
2022/11/07 07:10:25;;;;;;;1.20;0.90;;;7.80;99.90;;;;;;5040326;28;20205;-48
2022/11/07 07:12:55;;;;;;;2.17;0.90;;;7.80;99.90;;;;;;5042330;28;20228;-49
2022/11/07 07:15:22;;;;;;;1.57;0.87;;;7.90;99.90;;;;;;5041260;28;20289;-48
2022/11/07 07:17:49;;;;;;;1.10;0.77;;;7.90;99.90;;;;;;5049788;28;20717;-49
2022/11/07 07:20:16;;;;;;;1.27;0.77;;;8.00;99.90;;;;;;5038961;28;20894;-48
2022/11/07 07:22:44;;;;;;;3.13;0.50;;;8.00;99.90;;;;;;5043613;28;20215;-48
2022/11/07 07:25:11;;;;;;;0.93;0.60;;;8.00;99.90;;;;;;5037005;28;20339;-48
2022/11/07 07:27:38;;;;;;;0.50;0.50;;;8.20;99.90;;;;;;5043125;28;20258;-48
2022/11/07 07:30:08;;;;;;;0.97;0.97;;;8.20;99.90;;;;;;5040243;28;20205;-50
2022/11/07 07:32:35;;;;;;;0.70;0.70;;;8.30;99.90;;;;;;5040620;28;20382;-49
2022/11/07 07:35:03;;;;;;;0.40;0.40;;;8.40;99.90;;;;;;5040926;28;20213;-49
2022/11/07 07:37:30;;;;;;;0.80;0.70;;;8.40;99.90;;;;;;5041931;28;20200;-47
2022/11/07 07:39:57;;;;;;;2.63;0.60;;;8.50;99.90;;;;;;5053028;28;20245;-48
2022/11/07 07:42:24;;;;;;;0.57;0.57;;;8.50;99.90;;;;;;5041531;28;20228;-48
2022/11/07 07:44:51;;;;;;;1.93;0.57;;;8.60;99.90;;;;;;5034640;28;20620;-48
2022/11/07 07:47:19;;;;;;;1.80;0.50;;;8.70;99.90;;;;;;5037647;28;20207;-48
2022/11/07 07:49:46;;;;;;;0.87;0.87;;;8.70;99.90;;;;;;5044622;28;20199;-48
2022/11/07 07:52:13;;;;;;;2.00;0.50;;;8.70;99.90;;;;;;5041461;28;20208;-48
2022/11/07 07:54:40;;;;;;;0.60;0.50;;;8.70;99.90;;;;;;5052645;28;20247;-48
2022/11/07 07:57:07;;;;;;;0.80;0.80;;;8.80;99.90;;;;;;5053414;28;20669;-49
2022/11/07 07:59:34;;;;;;;0.83;0.50;;;8.80;99.90;;;;;;5040463;28;20731;-48
2022/11/07 08:02:01;;;;;;;0.97;0.50;;;8.90;99.90;;;;;;5034813;28;20569;-48
2022/11/07 08:04:29;;;;;;;2.00;0.50;;;8.90;99.90;;;;;;5044554;28;20660;-47
2022/11/07 08:06:56;;;;;;;0.40;0.33;;;9.00;99.90;;;;;;5045069;28;20249;-48
2022/11/07 08:09:23;;;;;;;2.20;0.50;;;9.10;99.90;;;;;;5050491;28;20247;-49
2022/11/07 08:11:50;;;;;;;0.50;0.40;;;9.10;99.90;;;;;;5043725;28;20203;-48
2022/11/07 08:14:20;;;;;;;2.37;0.70;;;9.20;99.90;;;;;;5052447;28;20222;-49
2022/11/07 08:16:47;;;;;;;1.80;0.47;;;9.30;99.90;;;;;;5038563;28;20259;-48
2022/11/07 08:19:14;;;;;;;0.50;0.50;;;9.40;99.90;;;;;;5036332;28;20200;-48
2022/11/07 08:21:43;;;;;;;1.80;0.40;;;9.50;99.90;;;;;;5041261;28;20273;-48
2022/11/07 08:24:10;;;;;;;1.83;0.50;;;9.60;99.90;;;;;;5041420;28;20212;-48
2022/11/07 08:26:38;;;;;;;0.73;0.40;;;9.70;99.90;;;;;;5033978;28;20205;-48
2022/11/07 08:29:05;;;;;;;1.83;0.70;;;9.70;99.90;;;;;;5033917;28;20985;-48
2022/11/07 08:31:32;;;;;;;2.73;0.70;;;9.80;99.90;;;;;;5033875;28;20215;-48
2022/11/07 08:34:00;;;;;;;0.93;0.63;;;9.90;99.90;;;;;;5035792;28;20278;-48
2022/11/07 08:36:27;;;;;;;2.00;0.47;;;10.00;99.90;;;;;;5036187;28;20212;-48
2022/11/07 08:38:55;;;;;;;1.73;0.47;;;10.10;99.90;;;;;;5041422;28;20192;-49
2022/11/07 08:41:22;;;;;;;0.30;0.30;;;10.30;99.90;;;;;;5035524;28;20204;-48
2022/11/07 08:43:49;;;;;;;0.47;0.47;;;10.70;99.90;;;;;;5038346;28;21009;-48
2022/11/07 08:46:16;;;;;;;1.60;0.40;;;11.50;99.90;;;;;;5046065;28;20196;-48
2022/11/07 08:48:43;;;;;;;0.60;0.40;;;12.30;99.90;;;;;;5043012;28;20201;-48
2022/11/07 08:51:10;;;;;;;0.90;0.50;;;13.00;99.90;;;;;;5033314;28;20209;-48
2022/11/07 08:53:37;;;;;;;0.60;0.60;;;13.60;99.90;;;;;;5042801;28;20220;-48
2022/11/07 08:56:08;;;;;;;2.70;0.50;;;13.90;99.90;;;;;;5044483;28;20200;-48
2022/11/07 08:58:36;;;;;;;0.50;0.50;;;13.90;99.90;;;;;;5033369;28;20641;-48
2022/11/07 09:01:06;;;;;;;0.53;0.50;;;13.90;99.90;;;;;;5033206;28;20199;-49
2022/11/07 09:03:36;;;;;;;0.50;0.50;;;13.80;99.90;;;;;;5032981;28;20306;-49
2022/11/07 09:06:04;;;;;;;2.53;0.50;;;13.30;99.90;;;;;;5047519;28;20291;-49
2022/11/07 09:08:31;;;;;;;3.30;0.30;;;13.20;99.90;;;;;;5040610;28;20685;-48
2022/11/07 09:11:02;;;;;;;0.53;0.37;;;13.30;99.90;;;;;;5032868;28;20201;-49
2022/11/07 09:13:31;;;;;;;0.67;0.40;;;13.80;99.90;;;;;;5032656;28;20579;-50
2022/11/07 09:15:59;;;;;;;5.13;0.40;;;14.10;99.90;;;;;;5033070;28;20190;-48
2022/11/07 09:18:27;;;;;;;0.77;0.20;;;14.30;99.90;;;;;;5033110;28;20198;-49
2022/11/07 09:20:54;;;;;;;1.07;1.03;;;14.00;99.90;;;;;;5033024;28;20264;-48
2022/11/07 09:23:21;;;;;;;1.43;1.03;;;13.90;99.90;;;;;;5039940;28;20216;-48
2022/11/07 09:25:48;;;;;;;5.93;4.67;;;14.00;99.90;;;;;;5041696;28;20732;-49
2022/11/07 09:28:15;;;;;;;8.33;5.50;;;14.20;99.90;;;;;;5032747;28;20614;-49
2022/11/07 09:30:44;;;;;;;0.60;0.57;;;14.50;99.90;;;;;;5049712;28;20765;-48
2022/11/07 09:33:11;;;;;;;60.57;39.83;;;14.40;99.90;;;;;;5052911;28;20222;-47
2022/11/07 09:35:38;;;;;;;38.77;29.93;;;14.60;99.90;;;;;;5053321;28;20201;-48
2022/11/07 09:38:05;;;;;;;24.73;21.60;;;14.60;99.90;;;;;;5052016;28;20198;-49
2022/11/07 09:40:43;;;;;;;18.53;12.23;;;14.20;99.90;;;;;;5044619;28;20197;-48
2022/11/07 09:43:34;;;;;;;5.50;5.00;;;13.90;99.90;;;;;;5032980;28;20296;-49
2022/11/07 09:46:12;;;;;;;1.00;0.90;;;13.80;99.90;;;;;;5033127;28;20217;-48
2022/11/07 09:48:44;;;;;;;3.43;0.40;;;14.10;99.90;;;;;;5032674;28;20202;-49
2022/11/07 09:51:14;;;;;;;1.40;0.30;;;14.60;99.90;;;;;;5032982;28;20207;-48
2022/11/07 09:53:45;;;;;;;0.40;0.37;;;15.00;99.90;;;;;;5032609;28;20290;-48
2022/11/07 09:56:13;;;;;;;3.23;2.57;;;15.10;99.90;;;;;;5045501;28;20210;-49
2022/11/07 09:58:43;;;;;;;0.73;0.60;;;15.20;99.90;;;;;;5049771;28;20209;-48
2022/11/07 10:01:15;;;;;;;1.97;1.20;;;15.30;99.90;;;;;;5052156;28;20201;-49
2022/11/07 10:03:43;;;;;;;1.33;0.83;;;15.30;99.90;;;;;;5051880;28;20256;-48
2022/11/07 10:06:20;;;;;;;1.47;0.50;;;15.20;99.90;;;;;;5052677;28;20209;-49
2022/11/07 10:08:53;;;;;;;0.40;0.40;;;15.20;99.90;;;;;;5052563;28;20210;-49
2022/11/07 10:11:33;;;;;;;3.10;0.30;;;15.10;99.90;;;;;;5051305;28;20614;-48
2022/11/07 10:14:10;;;;;;;0.57;0.57;;;15.00;99.90;;;;;;5043538;28;20225;-48
2022/11/07 10:16:48;;;;;;;0.50;0.50;;;15.00;99.90;;;;;;5052402;28;20739;-49
2022/11/07 10:19:34;;;;;;;1.70;0.60;;;15.30;99.90;;;;;;5052260;28;20206;-49
2022/11/07 10:22:11;;;;;;;0.80;0.40;;;15.80;99.90;;;;;;5052140;28;20255;-50
2022/11/07 10:24:54;;;;;;;3.10;0.40;;;15.80;99.90;;;;;;5052012;28;20351;-49
2022/11/07 10:27:22;;;;;;;0.97;0.50;;;15.80;99.90;;;;;;5050452;28;20670;-49
2022/11/07 10:29:52;;;;;;;0.50;0.50;;;15.60;99.90;;;;;;5043673;28;20685;-50
2022/11/07 10:32:25;;;;;;;0.43;0.43;;;15.70;99.90;;;;;;5051939;28;20210;-49
2022/11/07 10:35:01;;;;;;;0.97;0.40;;;15.70;99.90;;;;;;5051973;28;20208;-50
2022/11/07 10:37:28;;;;;;;1.80;0.70;;;15.70;99.90;;;;;;5051999;28;20587;-50
2022/11/07 10:39:55;;;;;;;0.50;0.50;;;15.70;99.90;;;;;;5051779;28;20198;-50
2022/11/07 10:42:25;;;;;;;0.23;0.23;;;15.60;99.90;;;;;;5051788;28;20247;-48
2022/11/07 10:44:55;;;;;;;0.67;0.50;;;15.50;99.90;;;;;;5036446;28;20210;-49
2022/11/07 10:47:25;;;;;;;0.40;0.37;;;15.30;99.90;;;;;;5046478;28;20198;-49
2022/11/07 10:50:00;;;;;;;3.87;0.50;;;15.20;99.90;;;;;;5051130;28;20197;-49
2022/11/07 10:52:29;;;;;;;0.77;0.20;;;15.10;99.90;;;;;;5051962;28;20224;-48
2022/11/07 10:55:07;;;;;;;0.60;0.30;;;15.00;99.90;;;;;;5051665;28;20252;-49
2022/11/07 10:57:35;;;;;;;0.30;0.30;;;14.90;99.90;;;;;;5051980;28;20206;-49
2022/11/07 11:00:06;;;;;;;0.40;0.20;;;14.80;99.90;;;;;;5047069;28;20263;-50
2022/11/07 11:02:45;;;;;;;0.40;0.20;;;14.80;99.90;;;;;;5036996;28;20230;-49
2022/11/07 11:05:23;;;;;;;0.30;0.30;;;14.70;99.90;;;;;;5036046;28;20212;-49
2022/11/07 11:07:50;;;;;;;0.63;0.50;;;14.70;99.90;;;;;;5051805;28;20300;-50
2022/11/07 11:10:20;;;;;;;1.80;0.50;;;14.80;99.90;;;;;;5051682;28;20239;-49
2022/11/07 11:12:49;;;;;;;1.73;0.53;;;14.80;99.90;;;;;;5050961;28;20282;-49
2022/11/07 11:15:19;;;;;;;0.63;0.20;;;14.80;99.90;;;;;;5050073;28;20288;-49
2022/11/07 11:17:56;;;;;;;0.93;0.30;;;14.80;99.90;;;;;;5047187;28;20240;-49
2022/11/07 11:20:33;;;;;;;0.40;0.20;;;14.70;99.90;;;;;;5046363;28;20201;-49
2022/11/07 11:23:00;;;;;;;2.30;0.67;;;14.60;99.90;;;;;;5049788;28;20777;-49
2022/11/07 11:25:27;;;;;;;1.93;0.30;;;14.60;99.90;;;;;;5035301;28;20227;-50
2022/11/07 11:28:01;;;;;;;0.33;0.33;;;14.80;99.90;;;;;;5047914;28;20621;-49
2022/11/07 11:30:30;;;;;;;0.40;0.40;;;15.00;99.90;;;;;;5047883;28;20197;-50
2022/11/07 11:33:05;;;;;;;0.60;0.50;;;15.10;99.90;;;;;;5050062;28;20233;-50
2022/11/07 11:35:37;;;;;;;0.27;0.20;;;15.30;99.90;;;;;;5048921;28;20201;-49
2022/11/07 11:38:12;;;;;;;0.63;0.63;;;15.40;99.90;;;;;;5045010;28;20203;-49
2022/11/07 11:40:42;;;;;;;1.17;0.20;;;15.40;99.90;;;;;;5049533;28;20619;-50
2022/11/07 11:43:19;;;;;;;0.53;0.20;;;15.40;99.90;;;;;;5038374;28;20246;-49
2022/11/07 11:46:00;;;;;;;1.50;0.30;;;15.30;99.90;;;;;;5044736;28;20247;-49
2022/11/07 11:48:34;;;;;;;0.30;0.30;;;15.10;99.90;;;;;;5044178;28;20268;-50
2022/11/07 11:51:06;;;;;;;0.37;0.10;;;15.10;99.90;;;;;;5043224;28;20194;-49
2022/11/07 11:53:33;;;;;;;0.93;0.20;;;15.10;99.90;;;;;;5040348;28;20295;-49
2022/11/07 11:56:17;;;;;;;0.73;0.20;;;15.00;99.90;;;;;;5042692;28;20213;-49
2022/11/07 11:58:53;;;;;;;1.67;0.37;;;15.00;99.90;;;;;;5036412;28;20256;-49
2022/11/07 12:01:29;;;;;;;2.10;0.40;;;15.00;99.90;;;;;;5047023;28;20206;-49
2022/11/07 12:04:08;;;;;;;0.80;0.20;;;15.00;99.90;;;;;;5046422;28;20230;-49
2022/11/07 12:06:38;;;;;;;0.23;0.20;;;15.10;99.90;;;;;;5043900;28;20272;-49
2022/11/07 12:09:32;;;;;;;0.10;0.10;;;15.10;99.90;;;;;;5030978;28;20199;-49
2022/11/07 12:12:11;;;;;;;0.10;0.10;;;15.00;99.90;;;;;;5044943;28;20230;-49
2022/11/07 12:15:12;;;;;;;3.40;0.50;;;15.00;99.90;;;;;;5050701;28;20257;-49
2022/11/07 12:17:48;;;;;;;0.20;0.20;;;15.00;99.90;;;;;;5047204;28;20205;-49
2022/11/07 12:20:24;;;;;;;0.20;0.20;;;15.10;99.90;;;;;;5037480;28;20202;-49
2022/11/07 12:23:05;;;;;;;0.30;0.30;;;15.00;99.90;;;;;;5030988;28;20226;-49
2022/11/07 12:25:39;;;;;;;0.33;0.10;;;15.10;99.90;;;;;;5032142;28;20626;-49
2022/11/07 12:28:26;;;;;;;0.27;0.20;;;15.10;99.90;;;;;;5034588;28;20671;-49
2022/11/07 12:31:04;;;;;;;0.97;0.30;;;15.10;99.90;;;;;;5044328;28;20206;-49
2022/11/07 12:33:36;;;;;;;0.60;0.30;;;15.10;99.90;;;;;;5052928;28;20225;-50
2022/11/07 12:36:13;;;;;;;0.20;0.20;;;15.10;99.90;;;;;;5042664;28;20198;-50
2022/11/07 12:39:03;;;;;;;0.40;0.40;;;15.10;99.90;;;;;;5034510;28;20236;-50
2022/11/07 12:41:42;;;;;;;0.40;0.40;;;15.10;99.90;;;;;;5034366;28;20202;-49
2022/11/07 12:44:38;;;;;;;0.50;0.20;;;15.00;99.90;;;;;;5039190;28;20275;-49
2022/11/07 12:47:14;;;;;;;0.40;0.20;;;15.00;99.90;;;;;;5039756;28;20260;-49
2022/11/07 12:50:03;;;;;;;3.60;0.30;;;15.00;99.90;;;;;;5045077;28;20205;-50
2022/11/07 12:52:54;;;;;;;0.20;0.20;;;15.10;99.90;;;;;;5033895;28;20226;-50
2022/11/07 12:55:24;;;;;;;0.47;0.20;;;15.10;99.90;;;;;;5034027;28;20280;-50
2022/11/07 12:57:54;;;;;;;0.40;0.40;;;15.10;99.90;;;;;;5033777;28;20280;-49
2022/11/07 13:00:24;;;;;;;0.40;0.40;;;15.10;99.90;;;;;;5046483;28;20207;-50
2022/11/07 13:03:18;;;;;;;0.30;0.20;;;15.10;99.90;;;;;;5052104;28;20236;-50
2022/11/07 13:06:00;;;;;;;1.53;0.30;;;15.20;99.90;;;;;;5053601;28;20280;-49
2022/11/07 13:08:35;;;;;;;1.23;0.53;;;15.20;99.90;;;;;;5047887;28;20240;-49
2022/11/07 13:11:07;;;;;;;0.77;0.77;;;15.20;99.90;;;;;;5043577;28;20745;-50
2022/11/07 13:13:45;;;;;;;4.27;0.40;;;15.20;99.90;;;;;;5036835;28;20222;-50
2022/11/07 13:16:23;;;;;;;0.30;0.20;;;15.10;99.90;;;;;;5034289;28;20198;-49
2022/11/07 13:18:50;;;;;;;0.60;0.30;;;15.20;99.90;;;;;;5036825;28;20281;-49
2022/11/07 13:21:17;;;;;;;1.10;0.30;;;15.10;99.90;;;;;;5038148;28;20206;-49
2022/11/07 13:23:46;;;;;;;0.40;0.40;;;15.00;99.90;;;;;;5051420;28;20669;-49